Tralafiti — DJ3345 — position and weather

sailwx.info

Track history (hours):
 
Tides and Currents Weather Stations Pressure Air Temp Water Temp Dewpoint Dewpoint Depression Visibility Wind Speed Wind Dir Waves Ship Positions

Tralafiti

Last reported at 2015-Jul-14 07:18 UTC. Time now 2015-Aug-04 20:01 UTC.
Position N 54°26' E 010°14'.
Warning: this ship's position is 21 days out of date.

Length 12 m.

Type: Sailing vessel. MMSI: 211445980.

Date/timePositionNaut miles runAvg speedWind from/ knotsBaromVisibWave heightAir tempDewpointWater temp
2015-Jul-14 07:18N 54°26' E 010°14'4 5.9
2015-Jul-14 06:33N 54°22' E 010°10'1 0.1
2015-Jul-13 12:24N 54°22' E 010°09'42 1.7
2015-Jul-12 11:08N 53°56' E 009°13'3 5.5
2015-Jul-12 10:32N 53°54' E 009°09'1 0.4
2015-Jul-12 09:23N 53°53' E 009°09'5 5.2
2015-Jul-12 08:20N 53°51' E 009°00'7 7.5
2015-Jul-12 07:28N 53°50' E 008°49'115 6.0
2015-Jul-11 12:28N 53°33' E 005°38'6 6.8
2015-Jul-11 11:33N 53°31' E 005°28'163 5.4
2015-Jul-10 05:31N 51°19' E 002°52'5 2.6
2015-Jul-10 03:32N 51°14' E 002°55'0 0.0
2015-Jul-10 02:30N 51°14' E 002°55'0 0.0
2015-Jul-10 01:24N 51°14' E 002°55'0 0.0
2015-Jul-10 00:08N 51°14' E 002°55'0 0.0
2015-Jul-09 23:30N 51°14' E 002°55'0 0.0
2015-Jul-09 22:30N 51°14' E 002°55'0 0.0
2015-Jul-09 21:30N 51°14' E 002°55'0 0.0
2015-Jul-09 20:33N 51°14' E 002°55'0 0.0
2015-Jul-09 18:18N 51°14' E 002°55'0 0.0
2015-Jul-09 16:12N 51°14' E 002°55'0 0.0
2015-Jul-09 15:33N 51°14' E 002°55'0 0.0
2015-Jul-09 14:27N 51°14' E 002°55'0 0.0
2015-Jul-09 12:18N 51°14' E 002°55'0 0.0
2015-Jul-09 11:24N 51°14' E 002°55'0 0.0
2015-Jul-09 10:30N 51°14' E 002°55'0 0.0
2015-Jul-09 09:30N 51°14' E 002°55'0 0.0
2015-Jul-09 08:33N 51°14' E 002°55'0 0.0
2015-Jul-09 07:33N 51°14' E 002°55'0 0.0
2015-Jul-09 06:33N 51°14' E 002°55'0 0.0
2015-Jul-09 05:33N 51°14' E 002°55'0 0.0
2015-Jul-09 04:33N 51°14' E 002°55'0 0.0
2015-Jul-09 03:33N 51°14' E 002°55'0 0.0
2015-Jul-09 02:33N 51°14' E 002°55'0 0.0
2015-Jul-09 01:33N 51°14' E 002°55'0 0.0
2015-Jul-09 00:33N 51°14' E 002°55'0 0.0
2015-Jul-08 23:33N 51°14' E 002°55'0 0.0
2015-Jul-08 22:33N 51°14' E 002°55'0 0.0
2015-Jul-08 21:33N 51°14' E 002°55'0 0.0
2015-Jul-08 20:18N 51°14' E 002°55'0 0.0
2015-Jul-08 19:33N 51°14' E 002°55'0 0.0
2015-Jul-08 17:33N 51°14' E 002°55'0 0.0
2015-Jul-08 16:33N 51°14' E 002°55'0 0.0
2015-Jul-08 15:30N 51°14' E 002°55'0 0.0
2015-Jul-08 14:33N 51°14' E 002°55'0 0.0
2015-Jul-08 13:33N 51°14' E 002°55'0 0.0
2015-Jul-08 12:33N 51°14' E 002°55'0 0.0
2015-Jul-08 11:33N 51°14' E 002°55'0 0.0
2015-Jul-08 10:33N 51°14' E 002°55'0 0.0
2015-Jul-08 09:33N 51°14' E 002°55'0 0.0
2015-Jul-08 08:21N 51°14' E 002°55'0 0.0
2015-Jul-08 07:33N 51°14' E 002°55'0 0.0
2015-Jul-08 06:33N 51°14' E 002°55'0 0.0
2015-Jul-08 05:33N 51°14' E 002°55'0 0.0
2015-Jul-08 04:33N 51°14' E 002°55'0 0.0
2015-Jul-08 03:33N 51°14' E 002°55'0 0.0
2015-Jul-08 02:33N 51°14' E 002°55'0 0.0
2015-Jul-08 00:33N 51°14' E 002°55'0 0.0
2015-Jul-07 23:30N 51°14' E 002°55'0 0.0
2015-Jul-07 22:27N 51°14' E 002°55'0 0.0
2015-Jul-07 20:18N 51°14' E 002°55'0 0.0
2015-Jul-07 19:21N 51°14' E 002°55'0 0.0
2015-Jul-07 18:33N 51°14' E 002°55'0 0.0
2015-Jul-07 17:33N 51°14' E 002°55'0 0.0
2015-Jul-07 16:33N 51°14' E 002°55'0 0.0
2015-Jul-07 15:30N 51°14' E 002°55'0 0.0
2015-Jul-07 14:33N 51°14' E 002°55'0 0.0
2015-Jul-07 13:27N 51°14' E 002°55'0 0.0
2015-Jul-07 12:33N 51°14' E 002°55'0 0.0
2015-Jul-07 11:33N 51°14' E 002°55'0 0.0
2015-Jul-07 08:33N 51°14' E 002°55'0 0.0
2015-Jul-07 00:12N 51°14' E 002°55'0 0.0
2015-Jul-06 23:30N 51°14' E 002°55'0 0.0
2015-Jul-06 22:30N 51°14' E 002°55'0 0.0
2015-Jul-06 21:33N 51°14' E 002°55'0 0.0
2015-Jul-06 20:30N 51°14' E 002°55'0 0.0
2015-Jul-06 19:33N 51°14' E 002°55'0 0.0
2015-Jul-06 18:33N 51°14' E 002°55'0 0.0
2015-Jul-06 17:33N 51°14' E 002°55'0 0.0
2015-Jul-06 16:30N 51°14' E 002°55'0 0.0
2015-Jul-06 15:33N 51°14' E 002°55'0 0.0
2015-Jul-06 14:33N 51°14' E 002°55'0 0.0
2015-Jul-06 13:33N 51°14' E 002°55'0 0.0
2015-Jul-06 12:33N 51°14' E 002°55'0 0.0
2015-Jul-06 11:33N 51°14' E 002°55'0 0.0
2015-Jul-06 10:33N 51°14' E 002°55'0 0.0
2015-Jul-06 09:30N 51°14' E 002°55'0 0.0
2015-Jul-06 08:33N 51°14' E 002°55'0 0.0
2015-Jul-06 07:30N 51°14' E 002°55'0 0.0
2015-Jul-06 06:27N 51°14' E 002°55'0 0.0
2015-Jul-06 05:33N 51°14' E 002°55'0 0.0
2015-Jul-06 04:33N 51°14' E 002°55'4 4.3
2015-Jul-06 03:33N 51°14' E 002°49'7 6.4
2015-Jul-06 02:32N 51°10' E 002°39'228 5.6
2015-Jul-04 10:05N 50°27' W 003°15'4 6.7
2015-Jul-04 09:31N 50°27' W 003°21'5 5.5
2015-Jul-04 08:33N 50°27' W 003°29'2 1.6
2015-Jul-04 07:33N 50°27' W 003°32'  
Track history (hours):
 
Tides and Currents Weather Stations Pressure Air Temp Water Temp Dewpoint Dewpoint Depression Visibility Wind Speed Wind Dir Waves Ship Positions

Tralafiti

Last reported at 2015-Jul-14 07:18 UTC. Time now 2015-Aug-04 20:01 UTC.
Position N 54°26' E 010°14'.
Warning: this ship's position is 21 days out of date.

Length 12 m.

Type: Sailing vessel. MMSI: 211445980.

Date/timePositionNaut miles runAvg speedWind from/ knotsBaromVisibWave heightAir tempDewpointWater temp
2015-Jul-14 07:18N 54°26' E 010°14'4 5.9
2015-Jul-14 06:33N 54°22' E 010°10'1 0.1
2015-Jul-13 12:24N 54°22' E 010°09'42 1.7
2015-Jul-12 11:08N 53°56' E 009°13'3 5.5
2015-Jul-12 10:32N 53°54' E 009°09'1 0.4
2015-Jul-12 09:23N 53°53' E 009°09'5 5.2
2015-Jul-12 08:20N 53°51' E 009°00'7 7.5
2015-Jul-12 07:28N 53°50' E 008°49'115 6.0
2015-Jul-11 12:28N 53°33' E 005°38'6 6.8
2015-Jul-11 11:33N 53°31' E 005°28'163 5.4
2015-Jul-10 05:31N 51°19' E 002°52'5 2.6
2015-Jul-10 03:32N 51°14' E 002°55'0 0.0
2015-Jul-10 02:30N 51°14' E 002°55'0 0.0
2015-Jul-10 01:24N 51°14' E 002°55'0 0.0
2015-Jul-10 00:08N 51°14' E 002°55'0 0.0
2015-Jul-09 23:30N 51°14' E 002°55'0 0.0
2015-Jul-09 22:30N 51°14' E 002°55'0 0.0
2015-Jul-09 21:30N 51°14' E 002°55'0 0.0
2015-Jul-09 20:33N 51°14' E 002°55'0 0.0
2015-Jul-09 18:18N 51°14' E 002°55'0 0.0
2015-Jul-09 16:12N 51°14' E 002°55'0 0.0
2015-Jul-09 15:33N 51°14' E 002°55'0 0.0
2015-Jul-09 14:27N 51°14' E 002°55'0 0.0
2015-Jul-09 12:18N 51°14' E 002°55'0 0.0
2015-Jul-09 11:24N 51°14' E 002°55'0 0.0
2015-Jul-09 10:30N 51°14' E 002°55'0 0.0
2015-Jul-09 09:30N 51°14' E 002°55'0 0.0
2015-Jul-09 08:33N 51°14' E 002°55'0 0.0
2015-Jul-09 07:33N 51°14' E 002°55'0 0.0
2015-Jul-09 06:33N 51°14' E 002°55'0 0.0
2015-Jul-09 05:33N 51°14' E 002°55'0 0.0
2015-Jul-09 04:33N 51°14' E 002°55'0 0.0
2015-Jul-09 03:33N 51°14' E 002°55'0 0.0
2015-Jul-09 02:33N 51°14' E 002°55'0 0.0
2015-Jul-09 01:33N 51°14' E 002°55'0 0.0
2015-Jul-09 00:33N 51°14' E 002°55'0 0.0
2015-Jul-08 23:33N 51°14' E 002°55'0 0.0
2015-Jul-08 22:33N 51°14' E 002°55'0 0.0
2015-Jul-08 21:33N 51°14' E 002°55'0 0.0
2015-Jul-08 20:18N 51°14' E 002°55'0 0.0
2015-Jul-08 19:33N 51°14' E 002°55'0 0.0
2015-Jul-08 17:33N 51°14' E 002°55'0 0.0
2015-Jul-08 16:33N 51°14' E 002°55'0 0.0
2015-Jul-08 15:30N 51°14' E 002°55'0 0.0
2015-Jul-08 14:33N 51°14' E 002°55'0 0.0
2015-Jul-08 13:33N 51°14' E 002°55'0 0.0
2015-Jul-08 12:33N 51°14' E 002°55'0 0.0
2015-Jul-08 11:33N 51°14' E 002°55'0 0.0
2015-Jul-08 10:33N 51°14' E 002°55'0 0.0
2015-Jul-08 09:33N 51°14' E 002°55'0 0.0
2015-Jul-08 08:21N 51°14' E 002°55'0 0.0
2015-Jul-08 07:33N 51°14' E 002°55'0 0.0
2015-Jul-08 06:33N 51°14' E 002°55'0 0.0
2015-Jul-08 05:33N 51°14' E 002°55'0 0.0
2015-Jul-08 04:33N 51°14' E 002°55'0 0.0
2015-Jul-08 03:33N 51°14' E 002°55'0 0.0
2015-Jul-08 02:33N 51°14' E 002°55'0 0.0
2015-Jul-08 00:33N 51°14' E 002°55'0 0.0
2015-Jul-07 23:30N 51°14' E 002°55'0 0.0
2015-Jul-07 22:27N 51°14' E 002°55'0 0.0
2015-Jul-07 20:18N 51°14' E 002°55'0 0.0
2015-Jul-07 19:21N 51°14' E 002°55'0 0.0
2015-Jul-07 18:33N 51°14' E 002°55'0 0.0
2015-Jul-07 17:33N 51°14' E 002°55'0 0.0
2015-Jul-07 16:33N 51°14' E 002°55'0 0.0
2015-Jul-07 15:30N 51°14' E 002°55'0 0.0
2015-Jul-07 14:33N 51°14' E 002°55'0 0.0
2015-Jul-07 13:27N 51°14' E 002°55'0 0.0
2015-Jul-07 12:33N 51°14' E 002°55'0 0.0
2015-Jul-07 11:33N 51°14' E 002°55'0 0.0
2015-Jul-07 08:33N 51°14' E 002°55'0 0.0
2015-Jul-07 00:12N 51°14' E 002°55'0 0.0
2015-Jul-06 23:30N 51°14' E 002°55'0 0.0
2015-Jul-06 22:30N 51°14' E 002°55'0 0.0
2015-Jul-06 21:33N 51°14' E 002°55'0 0.0
2015-Jul-06 20:30N 51°14' E 002°55'0 0.0
2015-Jul-06 19:33N 51°14' E 002°55'0 0.0
2015-Jul-06 18:33N 51°14' E 002°55'0 0.0
2015-Jul-06 17:33N 51°14' E 002°55'0 0.0
2015-Jul-06 16:30N 51°14' E 002°55'0 0.0
2015-Jul-06 15:33N 51°14' E 002°55'0 0.0
2015-Jul-06 14:33N 51°14' E 002°55'0 0.0
2015-Jul-06 13:33N 51°14' E 002°55'0 0.0
2015-Jul-06 12:33N 51°14' E 002°55'0 0.0
2015-Jul-06 11:33N 51°14' E 002°55'0 0.0
2015-Jul-06 10:33N 51°14' E 002°55'0 0.0
2015-Jul-06 09:30N 51°14' E 002°55'0 0.0
2015-Jul-06 08:33N 51°14' E 002°55'0 0.0
2015-Jul-06 07:30N 51°14' E 002°55'0 0.0
2015-Jul-06 06:27N 51°14' E 002°55'0 0.0
2015-Jul-06 05:33N 51°14' E 002°55'0 0.0
2015-Jul-06 04:33N 51°14' E 002°55'4 4.3
2015-Jul-06 03:33N 51°14' E 002°49'7 6.4
2015-Jul-06 02:32N 51°10' E 002°39'228 5.6
2015-Jul-04 10:05N 50°27' W 003°15'4 6.7
2015-Jul-04 09:31N 50°27' W 003°21'5 5.5
2015-Jul-04 08:33N 50°27' W 003°29'2 1.6
2015-Jul-04 07:33N 50°27' W 003°32'  

Dump ship's entire track history